Aviation Digital Data Service (ADDS)

Output produced by METARs form (0803 UTC 14 December 2017)
found at http://aviationweather.gov/adds/metars/
 
KGFL 140535Z 1406/1506 23006KT P6SM BKN100 
     FM141400 27006KT P6SM FEW050 SCT100 
     FM150000 VRB03KT P6SM SKC